createdAt,value
2019-05-09T03:17:02.560Z,99.90
2019-05-09T03:19:31.564Z,99.90
2019-05-09T03:22:08.567Z,99.90
2019-05-09T03:24:39.178Z,99.90
2019-05-09T03:27:12.689Z,99.90
2019-05-09T03:29:48.796Z,99.90
2019-05-09T03:32:19.461Z,99.90
2019-05-09T03:34:47.853Z,99.90
2019-05-09T03:37:17.663Z,99.90
2019-05-09T03:39:47.850Z,99.90
2019-05-09T03:42:21.183Z,99.90
2019-05-09T03:44:47.856Z,99.90
2019-05-09T03:47:31.642Z,99.90
2019-05-09T03:50:17.873Z,99.90
2019-05-09T03:52:47.783Z,99.90
2019-05-09T03:55:21.048Z,99.90
2019-05-09T03:57:58.092Z,99.90
2019-05-09T04:00:28.345Z,99.90
2019-05-09T04:02:58.140Z,99.90
2019-05-09T04:05:27.403Z,99.90
2019-05-09T04:07:59.779Z,99.90
2019-05-09T04:10:28.703Z,99.90
2019-05-09T04:12:59.572Z,99.90
2019-05-09T04:15:28.437Z,99.90
2019-05-09T04:17:57.958Z,99.90
2019-05-09T04:20:27.737Z,99.90
2019-05-09T04:22:59.255Z,99.90
2019-05-09T04:25:31.209Z,99.90
2019-05-09T04:28:01.034Z,99.90
2019-05-09T04:30:29.956Z,99.90
2019-05-09T04:32:58.999Z,99.90
2019-05-09T04:35:28.077Z,99.90
2019-05-09T04:37:58.431Z,99.90
2019-05-09T04:40:31.819Z,99.90
2019-05-09T04:43:11.370Z,99.90
2019-05-09T04:45:47.350Z,99.90
2019-05-09T04:48:32.270Z,99.90
2019-05-09T04:51:02.668Z,99.90
2019-05-09T04:53:32.406Z,99.90
2019-05-09T04:56:17.624Z,99.90
2019-05-09T04:58:48.178Z,99.90
2019-05-09T05:01:38.779Z,99.90
2019-05-09T05:04:07.838Z,99.90
2019-05-09T05:06:40.312Z,99.90
2019-05-09T05:09:08.700Z,99.90
2019-05-09T05:11:38.338Z,99.90
2019-05-09T05:14:09.402Z,99.90
2019-05-09T05:16:39.319Z,99.90
2019-05-09T05:19:08.478Z,99.90
2019-05-09T05:21:37.890Z,99.90
2019-05-09T05:24:29.826Z,99.90
2019-05-09T05:26:58.814Z,99.90
2019-05-09T05:29:28.268Z,99.90
2019-05-09T05:31:59.157Z,99.90
2019-05-09T05:34:57.305Z,99.90
2019-05-09T05:37:28.093Z,99.90
2019-05-09T05:39:58.337Z,99.90
2019-05-09T05:42:28.244Z,99.90
2019-05-09T05:44:58.238Z,99.90
2019-05-09T05:47:48.534Z,99.90
2019-05-09T05:50:17.737Z,99.90
2019-05-09T05:52:47.560Z,99.90
2019-05-09T05:55:18.214Z,99.90
2019-05-09T05:57:47.881Z,99.90
2019-05-09T06:00:18.941Z,99.90
2019-05-09T06:02:48.068Z,99.90
2019-05-09T06:05:18.648Z,99.90
2019-05-09T06:07:48.420Z,99.90
2019-05-09T06:10:18.681Z,99.90
2019-05-09T06:12:48.355Z,99.90
2019-05-09T06:15:18.335Z,99.90
2019-05-09T06:17:48.443Z,99.90
2019-05-09T06:20:18.034Z,99.90
2019-05-09T06:22:47.800Z,99.90
2019-05-09T06:25:20.805Z,99.90
2019-05-09T06:27:48.418Z,99.90
2019-05-09T06:30:28.144Z,99.90
2019-05-09T06:32:58.092Z,99.90
2019-05-09T06:35:28.287Z,99.90
2019-05-09T06:38:00.868Z,99.90
2019-05-09T06:40:32.562Z,99.90
2019-05-09T06:43:18.287Z,99.90
2019-05-09T06:46:08.116Z,99.90
2019-05-09T06:48:37.781Z,99.90
2019-05-09T06:51:07.402Z,99.90
2019-05-09T06:53:38.047Z,99.90
2019-05-09T06:56:07.586Z,99.90
2019-05-09T06:58:38.313Z,99.90
2019-05-09T07:01:18.238Z,99.90
2019-05-09T07:03:48.917Z,99.90
2019-05-09T07:06:23.192Z,99.90
2019-05-09T07:08:58.330Z,99.90
2019-05-09T07:11:27.494Z,99.90
2019-05-09T07:13:57.875Z,99.90
2019-05-09T07:16:27.663Z,99.90
2019-05-09T07:18:57.908Z,99.90
2019-05-09T07:21:48.378Z,99.90
2019-05-09T07:24:18.519Z,99.90
2019-05-09T07:26:47.898Z,99.90
2019-05-09T07:29:17.849Z,99.90
2019-05-09T07:31:57.226Z,99.90
2019-05-09T07:34:30.400Z,99.90
2019-05-09T07:36:59.378Z,99.90
2019-05-09T07:39:28.383Z,99.10
2019-05-09T07:41:58.311Z,97.70
2019-05-09T07:44:33.152Z,99.30
2019-05-09T07:47:03.128Z,97.70
2019-05-09T07:49:32.693Z,97.40
2019-05-09T07:52:06.782Z,96.20
2019-05-09T07:54:32.557Z,92.90
2019-05-09T07:57:01.471Z,94.50
2019-05-09T07:59:30.415Z,92.30
2019-05-09T08:01:59.555Z,91.70
2019-05-09T08:04:28.859Z,92.00
2019-05-09T08:06:57.990Z,92.10
2019-05-09T08:09:28.180Z,91.10
2019-05-09T08:11:58.735Z,90.20
2019-05-09T08:14:28.172Z,89.60
2019-05-09T08:16:58.019Z,90.30
2019-05-09T08:19:27.576Z,90.80
2019-05-09T08:21:57.482Z,90.00
2019-05-09T08:24:27.741Z,90.10
2019-05-09T08:26:57.991Z,87.30
2019-05-09T08:29:28.163Z,88.40
2019-05-09T08:31:58.237Z,86.90
2019-05-09T08:34:28.449Z,84.40
2019-05-09T08:36:58.354Z,83.90
2019-05-09T08:39:27.782Z,80.70
2019-05-09T08:41:59.222Z,86.00
2019-05-09T08:44:30.467Z,81.10
2019-05-09T08:46:58.514Z,78.10
2019-05-09T08:49:37.326Z,80.80
2019-05-09T08:52:16.035Z,82.00
2019-05-09T08:54:48.417Z,84.00
2019-05-09T08:57:18.252Z,83.40
2019-05-09T08:59:50.494Z,83.60
2019-05-09T09:02:21.988Z,84.80
2019-05-09T09:04:49.198Z,86.60
2019-05-09T09:07:19.101Z,80.10
2019-05-09T09:09:48.452Z,82.70
2019-05-09T09:12:27.147Z,89.20
2019-05-09T09:14:48.222Z,83.20
2019-05-09T09:17:18.711Z,86.40
2019-05-09T09:19:48.107Z,85.00
2019-05-09T09:22:18.007Z,84.60
2019-05-09T09:24:48.195Z,88.60
2019-05-09T09:27:18.203Z,90.00
2019-05-09T09:29:48.092Z,90.70
2019-05-09T09:32:18.890Z,92.50
2019-05-09T09:34:48.615Z,81.60
2019-05-09T09:37:18.503Z,81.50
2019-05-09T09:39:48.754Z,83.50
2019-05-09T09:42:19.944Z,87.90
2019-05-09T09:44:49.139Z,84.80
2019-05-09T09:47:23.071Z,76.90
2019-05-09T09:49:49.320Z,72.40
2019-05-09T09:52:18.890Z,70.20
2019-05-09T09:54:48.352Z,65.90
2019-05-09T09:57:19.060Z,65.20
2019-05-09T09:59:57.764Z,66.40
2019-05-09T10:02:30.132Z,64.90
2019-05-09T10:04:59.090Z,62.50
2019-05-09T10:07:28.083Z,62.20
2019-05-09T10:09:58.395Z,60.00
2019-05-09T10:12:28.567Z,63.30
2019-05-09T10:15:28.127Z,71.00
2019-05-09T10:18:18.270Z,74.00
2019-05-09T10:20:52.480Z,73.10
2019-05-09T10:23:21.809Z,75.80
2019-05-09T10:25:50.935Z,77.00
2019-05-09T10:28:21.574Z,79.50
2019-05-09T10:30:50.762Z,79.40
2019-05-09T10:33:19.760Z,78.00
2019-05-09T10:35:48.903Z,79.90
2019-05-09T10:38:18.561Z,79.30
2019-05-09T10:40:48.571Z,73.40
2019-05-09T10:43:35.691Z,69.10
2019-05-09T10:46:19.325Z,70.40
2019-05-09T10:48:58.429Z,74.40
2019-05-09T10:51:26.704Z,72.90
2019-05-09T10:53:55.650Z,71.30
2019-05-09T10:56:24.798Z,78.60
2019-05-09T10:58:53.923Z,75.50
2019-05-09T11:01:23.027Z,74.60
2019-05-09T11:03:51.951Z,72.70
2019-05-09T11:06:21.034Z,75.60
2019-05-09T11:08:50.044Z,77.00
2019-05-09T11:11:19.092Z,78.20
2019-05-09T11:13:48.523Z,81.00
2019-05-09T11:16:18.515Z,80.90
2019-05-09T11:18:48.438Z,82.00
2019-05-09T11:21:19.320Z,83.60
2019-05-09T11:23:49.073Z,82.50
2019-05-09T11:26:18.434Z,85.30
2019-05-09T11:28:47.679Z,87.00
2019-05-09T11:31:18.548Z,88.40
2019-05-09T11:33:48.416Z,90.90
2019-05-09T11:36:21.228Z,92.30
2019-05-09T11:38:49.381Z,93.40
2019-05-09T11:41:19.611Z,93.20
2019-05-09T11:43:48.959Z,93.40
2019-05-09T11:46:18.505Z,91.70
2019-05-09T11:48:47.691Z,91.50
2019-05-09T11:51:20.466Z,93.80
2019-05-09T11:53:48.557Z,95.30
2019-05-09T11:56:18.331Z,98.20
2019-05-09T11:58:48.343Z,97.50
2019-05-09T12:01:18.911Z,97.70
2019-05-09T12:03:52.031Z,99.10
2019-05-09T12:06:20.351Z,94.40
2019-05-09T12:08:49.815Z,86.70
2019-05-09T12:11:18.897Z,84.70
2019-05-09T12:13:48.862Z,83.20
2019-05-09T12:16:18.830Z,81.00
2019-05-09T12:18:49.045Z,85.80
2019-05-09T12:21:19.388Z,76.40
2019-05-09T12:23:49.245Z,67.60
2019-05-09T12:26:19.002Z,67.50
2019-05-09T12:28:48.749Z,64.40
2019-05-09T12:31:18.406Z,65.50
2019-05-09T12:33:48.576Z,62.20
2019-05-09T12:36:19.215Z,61.20
2019-05-09T12:38:49.870Z,64.60
2019-05-09T12:41:19.408Z,60.40
2019-05-09T12:43:48.660Z,58.70
2019-05-09T12:46:17.819Z,58.70
2019-05-09T12:48:48.131Z,58.80
2019-05-09T12:51:18.505Z,62.90
2019-05-09T12:53:48.676Z,63.50
2019-05-09T12:56:18.750Z,63.60
2019-05-09T12:58:48.124Z,64.90
2019-05-09T13:01:18.826Z,62.50
2019-05-09T13:03:48.599Z,63.00
2019-05-09T13:06:20.240Z,60.80
2019-05-09T13:08:48.578Z,61.40
2019-05-09T13:11:18.973Z,63.40
2019-05-09T13:13:48.307Z,65.20
2019-05-09T13:16:44.250Z,65.50
2019-05-09T13:19:07.280Z,60.10
2019-05-09T13:21:38.911Z,61.20
2019-05-09T13:24:08.344Z,60.00
2019-05-09T13:26:38.481Z,58.70
2019-05-09T13:29:08.304Z,61.90
2019-05-09T13:31:39.310Z,63.30
2019-05-09T13:34:08.294Z,61.60
2019-05-09T13:36:37.452Z,58.80
2019-05-09T13:39:09.312Z,59.40
2019-05-09T13:41:39.289Z,61.70
2019-05-09T13:44:13.262Z,62.00
2019-05-09T13:46:39.143Z,61.30
2019-05-09T13:49:14.878Z,61.80
2019-05-09T13:51:50.000Z,58.60
2019-05-09T13:54:09.747Z,61.30
2019-05-09T13:56:38.784Z,63.30
2019-05-09T13:59:08.451Z,64.90
2019-05-09T14:01:38.052Z,65.80
2019-05-09T14:04:07.869Z,63.30
2019-05-09T14:06:38.704Z,61.80
2019-05-09T14:09:10.287Z,59.40
2019-05-09T14:11:39.428Z,59.40
2019-05-09T14:14:08.542Z,59.80
2019-05-09T14:16:39.036Z,62.50
2019-05-09T14:19:25.965Z,62.80
2019-05-09T14:21:39.031Z,61.80
2019-05-09T14:24:14.360Z,64.10
2019-05-09T14:26:38.903Z,63.40
2019-05-09T14:29:12.157Z,63.20
2019-05-09T14:31:38.987Z,61.90
2019-05-09T14:34:08.834Z,63.50
2019-05-09T14:36:40.283Z,63.90
2019-05-09T14:39:09.543Z,61.20
2019-05-09T14:41:39.008Z,64.40
2019-05-09T14:44:09.322Z,66.60
2019-05-09T14:46:39.355Z,64.40
2019-05-09T14:49:08.530Z,64.30
2019-05-09T14:51:38.261Z,61.90
2019-05-09T14:54:08.386Z,60.00
2019-05-09T14:56:41.705Z,59.70
2019-05-09T14:59:09.787Z,62.80
2019-05-09T15:01:43.279Z,64.90
2019-05-09T15:04:09.887Z,65.10
2019-05-09T15:06:38.875Z,59.80
2019-05-09T15:09:08.658Z,57.00
2019-05-09T15:11:39.552Z,58.00
2019-05-09T15:14:08.560Z,58.10
2019-05-09T15:16:39.085Z,58.60
2019-05-09T15:19:08.660Z,57.10
2019-05-09T15:21:38.383Z,59.10
2019-05-09T15:24:09.311Z,59.40
2019-05-09T15:26:38.235Z,61.00
2019-05-09T15:29:07.957Z,59.30
2019-05-09T15:31:39.099Z,59.50
2019-05-09T15:34:10.360Z,59.60
2019-05-09T15:36:38.916Z,58.80
2019-05-09T15:39:08.322Z,60.30
2019-05-09T15:41:38.529Z,59.20
2019-05-09T15:44:08.422Z,60.80
2019-05-09T15:46:50.722Z,61.00
2019-05-09T15:49:19.713Z,62.40
2019-05-09T15:51:48.686Z,63.80
2019-05-09T15:54:17.986Z,63.80
2019-05-09T15:56:48.406Z,63.20
2019-05-09T15:59:18.389Z,64.20
2019-05-09T16:01:49.185Z,64.70
2019-05-09T16:04:18.609Z,67.60
2019-05-09T16:06:50.364Z,69.90
2019-05-09T16:09:22.466Z,72.90
2019-05-09T16:11:51.811Z,73.30
2019-05-09T16:14:22.027Z,73.40
2019-05-09T16:16:51.670Z,74.90
2019-05-09T16:19:20.754Z,77.20
2019-05-09T16:21:49.754Z,81.40
2019-05-09T16:24:19.059Z,83.80
2019-05-09T16:26:48.782Z,85.50
2019-05-09T16:29:18.166Z,84.70
2019-05-09T16:31:48.072Z,86.40
2019-05-09T16:34:18.132Z,88.50
2019-05-09T16:36:48.167Z,87.50
2019-05-09T16:39:18.323Z,87.00
2019-05-09T16:41:48.969Z,89.80
2019-05-09T16:44:18.557Z,86.40
2019-05-09T16:46:48.587Z,83.30
2019-05-09T16:49:20.241Z,84.80
2019-05-09T16:51:49.700Z,85.20
2019-05-09T16:54:19.330Z,84.60
2019-05-09T16:56:48.937Z,84.20
2019-05-09T16:59:18.222Z,84.80
2019-05-09T17:01:50.031Z,86.00
2019-05-09T17:04:19.245Z,84.40
2019-05-09T17:06:49.805Z,84.10
2019-05-09T17:09:19.212Z,84.10
2019-05-09T17:11:48.368Z,80.70
2019-05-09T17:14:19.285Z,78.50
2019-05-09T17:16:49.544Z,77.30
2019-05-09T17:19:19.594Z,78.70
2019-05-09T17:21:55.570Z,77.60
2019-05-09T17:24:24.689Z,79.70
2019-05-09T17:26:53.878Z,78.40
2019-05-09T17:29:23.056Z,77.80
2019-05-09T17:31:52.209Z,78.50
2019-05-09T17:34:21.298Z,78.80
2019-05-09T17:36:50.485Z,79.30
2019-05-09T17:39:19.557Z,80.80
2019-05-09T17:41:48.543Z,80.70
2019-05-09T17:44:18.593Z,82.20
2019-05-09T17:46:48.151Z,83.10
2019-05-09T17:49:17.528Z,84.50
2019-05-09T17:51:48.254Z,84.90
2019-05-09T17:54:19.447Z,84.40
2019-05-09T17:56:48.610Z,85.40
2019-05-09T17:59:18.366Z,86.30
2019-05-09T18:01:48.352Z,87.20
2019-05-09T18:04:18.070Z,87.20
2019-05-09T18:06:48.942Z,88.30
2019-05-09T18:09:18.982Z,87.90
2019-05-09T18:11:48.339Z,87.80
2019-05-09T18:14:18.512Z,88.50
2019-05-09T18:16:47.934Z,88.20
2019-05-09T18:19:17.867Z,87.80
2019-05-09T18:21:51.041Z,87.20
2019-05-09T18:24:17.826Z,87.10
2019-05-09T18:26:47.509Z,87.20
2019-05-09T18:29:18.121Z,87.60
2019-05-09T18:32:10.026Z,88.20
2019-05-09T18:34:39.100Z,88.20
2019-05-09T18:37:08.254Z,88.40
2019-05-09T18:39:37.579Z,89.00
2019-05-09T18:42:08.703Z,89.50
2019-05-09T18:44:37.534Z,90.00
2019-05-09T18:47:07.842Z,90.20
2019-05-09T18:49:36.953Z,90.50
2019-05-09T18:52:06.049Z,90.80
2019-05-09T18:54:35.183Z,90.80
2019-05-09T18:57:04.277Z,90.90
2019-05-09T18:59:33.257Z,90.70
2019-05-09T19:02:02.475Z,91.00
2019-05-09T19:04:31.611Z,91.00
2019-05-09T19:07:00.684Z,91.20
2019-05-09T19:09:29.823Z,91.40
2019-05-09T19:11:58.909Z,91.30
2019-05-09T19:14:28.769Z,91.30
2019-05-09T19:17:15.351Z,91.80
2019-05-09T19:19:57.039Z,91.90
2019-05-09T19:22:26.028Z,91.70
2019-05-09T19:24:55.104Z,92.00
2019-05-09T19:27:24.175Z,92.10
2019-05-09T19:29:53.083Z,92.30
2019-05-09T19:32:22.022Z,92.40
2019-05-09T19:34:51.030Z,92.50
2019-05-09T19:37:20.027Z,92.80
2019-05-09T19:39:48.944Z,92.70
2019-05-09T19:42:19.687Z,92.90
2019-05-09T19:44:48.757Z,92.90
2019-05-09T19:47:17.821Z,93.00
2019-05-09T19:49:46.899Z,93.30
2019-05-09T19:52:15.917Z,93.40
2019-05-09T19:54:45.034Z,93.60
2019-05-09T19:57:14.115Z,93.90
2019-05-09T19:59:43.174Z,94.10
2019-05-09T20:02:12.207Z,94.30
2019-05-09T20:04:41.276Z,94.50
2019-05-09T20:07:10.275Z,94.50
2019-05-09T20:09:45.417Z,94.70
2019-05-09T20:12:27.634Z,95.20
2019-05-09T20:14:56.828Z,95.10
2019-05-09T20:17:26.059Z,95.10
2019-05-09T20:19:55.004Z,95.50
2019-05-09T20:22:24.102Z,95.60
2019-05-09T20:24:53.380Z,95.60
2019-05-09T20:27:22.449Z,96.10
2019-05-09T20:29:51.532Z,95.70
2019-05-09T20:32:20.496Z,96.00
2019-05-09T20:34:49.487Z,96.30
2019-05-09T20:37:18.442Z,96.40
2019-05-09T20:39:47.734Z,96.80
2019-05-09T20:42:16.932Z,96.70
2019-05-09T20:44:46.114Z,97.00
2019-05-09T20:47:15.379Z,97.00
2019-05-09T20:49:44.513Z,97.20
2019-05-09T20:52:13.745Z,97.20
2019-05-09T20:54:42.945Z,97.50
2019-05-09T20:57:12.428Z,97.80
2019-05-09T20:59:41.598Z,98.10
2019-05-09T21:02:10.867Z,98.30
2019-05-09T21:04:40.131Z,98.70
2019-05-09T21:07:09.426Z,98.50
2019-05-09T21:09:38.624Z,98.80
2019-05-09T21:12:11.005Z,99.00
2019-05-09T21:14:38.875Z,99.10
2019-05-09T21:17:08.147Z,99.30
2019-05-09T21:19:37.348Z,99.40
2019-05-09T21:22:06.610Z,99.70
2019-05-09T21:24:35.863Z,99.90
2019-05-09T21:27:05.134Z,99.90
2019-05-09T21:29:34.456Z,99.90
2019-05-09T21:32:03.800Z,99.90
2019-05-09T21:34:33.067Z,99.90
2019-05-09T21:37:02.635Z,99.90
2019-05-09T21:39:31.634Z,99.90
2019-05-09T21:42:00.762Z,99.90
2019-05-09T21:44:29.888Z,99.90
2019-05-09T21:46:58.898Z,99.90
2019-05-09T21:49:28.002Z,99.90
2019-05-09T21:51:57.011Z,99.90
2019-05-09T21:54:26.007Z,99.90
2019-05-09T21:56:55.197Z,99.90
2019-05-09T21:59:24.263Z,99.90
2019-05-09T22:01:53.533Z,99.90
2019-05-09T22:04:22.707Z,99.90
2019-05-09T22:06:51.719Z,99.90
2019-05-09T22:09:20.743Z,99.90
2019-05-09T22:11:49.767Z,99.90
2019-05-09T22:14:18.840Z,99.90
2019-05-09T22:16:48.870Z,99.90
2019-05-09T22:19:18.076Z,99.90
2019-05-09T22:21:47.079Z,99.90
2019-05-09T22:24:16.079Z,99.90
2019-05-09T22:26:45.137Z,99.90
2019-05-09T22:29:14.215Z,99.90
